EDW399L LICC-LSZH
Flight info
| Callsign | EDW399L |
|---|---|
| Flight time | 1h 57m |
| Altitude | 38000 |
| Route | BUDIN DCT MALOG DCT GIKIN DCT CANNE Z651 KELIP |
| Aircraft | A320/M-SDE2E3FGHIJ1RWXY/LB1 |
Departure
| Time | 2026-04-26 06:25 |
|---|---|
| Airport | Catania-Fontanarossa Airport (LICC) |
Arrival
| Time | 2026-04-26 08:22 |
|---|---|
| Airport | Zürich Airport (LSZH) |
| Time | Latitude | Longitude | Altitude | Speed | Heading |
|---|---|---|---|---|---|
| 2026-04-26 06:05 | 37.46963 | 15.06473 | 51 ft | 0 kts | 19° |
| 2026-04-26 06:16 | 37.46957 | 15.06470 | 51 ft | 4 kts | 19° |
| 2026-04-26 06:16 | 37.46932 | 15.06459 | 49 ft | 4 kts | 19° |
| 2026-04-26 06:16 | 37.46906 | 15.06448 | 48 ft | 4 kts | 19° |
| 2026-04-26 06:17 | 37.46881 | 15.06437 | 51 ft | 4 kts | 17° |
| 2026-04-26 06:17 | 37.46855 | 15.06427 | 48 ft | 4 kts | 17° |
| 2026-04-26 06:17 | 37.46831 | 15.06415 | 51 ft | 4 kts | 46° |
| 2026-04-26 06:17 | 37.46824 | 15.06399 | 46 ft | 1 kts | 84° |
| 2026-04-26 06:18 | 37.46823 | 15.06396 | 51 ft | 0 kts | 84° |
| 2026-04-26 06:20 | 37.46823 | 15.06397 | 51 ft | 0 kts | 84° |
| 2026-04-26 06:21 | 37.46826 | 15.06421 | 51 ft | 12 kts | 84° |
| 2026-04-26 06:21 | 37.46836 | 15.06535 | 51 ft | 13 kts | 84° |
| 2026-04-26 06:21 | 37.46847 | 15.06671 | 51 ft | 22 kts | 84° |
| 2026-04-26 06:22 | 37.46859 | 15.06809 | 51 ft | 25 kts | 84° |
| 2026-04-26 06:22 | 37.46877 | 15.07031 | 51 ft | 26 kts | 84° |
| 2026-04-26 06:22 | 37.46903 | 15.07343 | 51 ft | 28 kts | 84° |
| 2026-04-26 06:22 | 37.46924 | 15.07587 | 49 ft | 27 kts | 84° |
| 2026-04-26 06:23 | 37.46940 | 15.07785 | 51 ft | 19 kts | 83° |
| 2026-04-26 06:23 | 37.46950 | 15.07892 | 51 ft | 18 kts | 84° |
| 2026-04-26 06:23 | 37.46955 | 15.08035 | 51 ft | 15 kts | 104° |
| 2026-04-26 06:23 | 37.46877 | 15.08089 | 51 ft | 14 kts | 178° |
| 2026-04-26 06:24 | 37.46796 | 15.08029 | 51 ft | 15 kts | 247° |
| 2026-04-26 06:24 | 37.46783 | 15.07888 | 52 ft | 18 kts | 264° |
| 2026-04-26 06:24 | 37.46732 | 15.07293 | 52 ft | 98 kts | 264° |
| 2026-04-26 06:24 | 37.46636 | 15.06174 | 63 ft | 155 kts | 263° |
| 2026-04-26 06:25 | 37.46528 | 15.04795 | 676 ft | 158 kts | 264° |
| 2026-04-26 06:25 | 37.46459 | 15.03868 | 1191 ft | 157 kts | 265° |
| 2026-04-26 06:25 | 37.46352 | 15.02523 | 1901 ft | 159 kts | 264° |
| 2026-04-26 06:25 | 37.46232 | 15.01054 | 2287 ft | 179 kts | 264° |
| 2026-04-26 06:26 | 37.46094 | 14.99395 | 2576 ft | 202 kts | 264° |
| 2026-04-26 06:26 | 37.45939 | 14.97545 | 2895 ft | 224 kts | 264° |
| 2026-04-26 06:26 | 37.45713 | 14.94830 | 3660 ft | 242 kts | 264° |
| 2026-04-26 06:26 | 37.45591 | 14.93400 | 4220 ft | 245 kts | 264° |
| 2026-04-26 06:27 | 37.45403 | 14.91258 | 5070 ft | 248 kts | 263° |
| 2026-04-26 06:27 | 37.45212 | 14.89111 | 5879 ft | 252 kts | 263° |
| 2026-04-26 06:27 | 37.45017 | 14.86895 | 6671 ft | 258 kts | 263° |
| 2026-04-26 06:27 | 37.44819 | 14.84640 | 7459 ft | 261 kts | 263° |
| 2026-04-26 06:28 | 37.44618 | 14.82357 | 8285 ft | 264 kts | 263° |
| 2026-04-26 06:28 | 37.44433 | 14.80049 | 9126 ft | 266 kts | 269° |
| 2026-04-26 06:28 | 37.44797 | 14.77774 | 9923 ft | 269 kts | 298° |
| 2026-04-26 06:28 | 37.46008 | 14.76000 | 10643 ft | 272 kts | 327° |
| 2026-04-26 06:29 | 37.47775 | 14.75189 | 11359 ft | 274 kts | 353° |
| 2026-04-26 06:29 | 37.49681 | 14.74925 | 12100 ft | 277 kts | 354° |
| 2026-04-26 06:29 | 37.51583 | 14.74679 | 12798 ft | 282 kts | 352° |
| 2026-04-26 06:29 | 37.54276 | 14.73894 | 13101 ft | 313 kts | 343° |
| 2026-04-26 06:30 | 37.55696 | 14.73382 | 13221 ft | 328 kts | 343° |
| 2026-04-26 06:30 | 37.57957 | 14.72532 | 13416 ft | 349 kts | 342° |
| 2026-04-26 06:30 | 37.60313 | 14.71630 | 13957 ft | 358 kts | 342° |
| 2026-04-26 06:30 | 37.62713 | 14.70714 | 14567 ft | 362 kts | 342° |
| 2026-04-26 06:31 | 37.65139 | 14.69796 | 15203 ft | 365 kts | 342° |
| 2026-04-26 06:31 | 37.67584 | 14.68878 | 15841 ft | 369 kts | 342° |
| 2026-04-26 06:31 | 37.70055 | 14.67957 | 16476 ft | 372 kts | 342° |
| 2026-04-26 06:31 | 37.72511 | 14.67043 | 17094 ft | 375 kts | 342° |
| 2026-04-26 06:32 | 37.75022 | 14.66111 | 17723 ft | 378 kts | 342° |
| 2026-04-26 06:32 | 37.77559 | 14.65173 | 18339 ft | 382 kts | 342° |
| 2026-04-26 06:32 | 37.80121 | 14.64227 | 18891 ft | 385 kts | 342° |
| 2026-04-26 06:32 | 37.82704 | 14.63273 | 19433 ft | 388 kts | 342° |
| 2026-04-26 06:33 | 37.85305 | 14.62307 | 19977 ft | 391 kts | 342° |
| 2026-04-26 06:33 | 37.87926 | 14.61328 | 20521 ft | 394 kts | 342° |
| 2026-04-26 06:33 | 37.90569 | 14.60339 | 21066 ft | 398 kts | 342° |
| 2026-04-26 06:33 | 37.93230 | 14.59344 | 21598 ft | 401 kts | 342° |
| 2026-04-26 06:34 | 37.95881 | 14.58355 | 22112 ft | 404 kts | 342° |
| 2026-04-26 06:34 | 37.98584 | 14.57346 | 22634 ft | 407 kts | 343° |
| 2026-04-26 06:34 | 38.01306 | 14.56329 | 23140 ft | 409 kts | 343° |
| 2026-04-26 06:34 | 38.04050 | 14.55303 | 23634 ft | 412 kts | 343° |
| 2026-04-26 06:35 | 38.06814 | 14.54271 | 24060 ft | 415 kts | 343° |
| 2026-04-26 06:35 | 38.10498 | 14.52895 | 24590 ft | 418 kts | 343° |
| 2026-04-26 06:35 | 38.12387 | 14.52189 | 24859 ft | 420 kts | 343° |
| 2026-04-26 06:35 | 38.15158 | 14.51151 | 25240 ft | 422 kts | 343° |
| 2026-04-26 06:36 | 38.17981 | 14.50089 | 25621 ft | 424 kts | 342° |
| 2026-04-26 06:36 | 38.20814 | 14.49017 | 25987 ft | 427 kts | 342° |
| 2026-04-26 06:36 | 38.23667 | 14.47932 | 26358 ft | 429 kts | 342° |
| 2026-04-26 06:36 | 38.26530 | 14.46844 | 26726 ft | 431 kts | 342° |
| 2026-04-26 06:37 | 38.29410 | 14.45755 | 27083 ft | 433 kts | 342° |
| 2026-04-26 06:37 | 38.32307 | 14.44665 | 27435 ft | 435 kts | 343° |
| 2026-04-26 06:37 | 38.35218 | 14.43572 | 27776 ft | 437 kts | 343° |
| 2026-04-26 06:37 | 38.38142 | 14.42475 | 28113 ft | 439 kts | 343° |
| 2026-04-26 06:38 | 38.41046 | 14.41384 | 28433 ft | 442 kts | 342° |
| 2026-04-26 06:38 | 38.43995 | 14.40271 | 28751 ft | 444 kts | 342° |
| 2026-04-26 06:38 | 38.46964 | 14.39147 | 29075 ft | 446 kts | 342° |
| 2026-04-26 06:38 | 38.49938 | 14.38015 | 29394 ft | 447 kts | 342° |
| 2026-04-26 06:39 | 38.52925 | 14.36876 | 29699 ft | 449 kts | 342° |
| 2026-04-26 06:39 | 38.55921 | 14.35737 | 29982 ft | 451 kts | 342° |
| 2026-04-26 06:39 | 38.58935 | 14.34590 | 30255 ft | 453 kts | 342° |
| 2026-04-26 06:39 | 38.61917 | 14.33457 | 30472 ft | 454 kts | 342° |
| 2026-04-26 06:40 | 38.64952 | 14.32302 | 30692 ft | 456 kts | 342° |
| 2026-04-26 06:40 | 38.67995 | 14.31142 | 30925 ft | 457 kts | 342° |
| 2026-04-26 06:40 | 38.71043 | 14.29982 | 31171 ft | 457 kts | 342° |
| 2026-04-26 06:40 | 38.74085 | 14.28821 | 31495 ft | 455 kts | 342° |
| 2026-04-26 06:41 | 38.77117 | 14.27661 | 31808 ft | 454 kts | 342° |
| 2026-04-26 06:41 | 38.80142 | 14.26504 | 32103 ft | 453 kts | 342° |
| 2026-04-26 06:41 | 38.83162 | 14.25350 | 32406 ft | 453 kts | 342° |
| 2026-04-26 06:41 | 38.86137 | 14.24212 | 32696 ft | 452 kts | 342° |
| 2026-04-26 06:42 | 38.89147 | 14.23058 | 32991 ft | 451 kts | 342° |
| 2026-04-26 06:42 | 38.92155 | 14.21904 | 33288 ft | 451 kts | 342° |
| 2026-04-26 06:42 | 38.95155 | 14.20755 | 33587 ft | 450 kts | 342° |
| 2026-04-26 06:42 | 38.98150 | 14.19604 | 33891 ft | 449 kts | 342° |
| 2026-04-26 06:43 | 39.01141 | 14.18451 | 34190 ft | 448 kts | 342° |
| 2026-04-26 06:43 | 39.04125 | 14.17298 | 34443 ft | 448 kts | 342° |
| 2026-04-26 06:43 | 39.07108 | 14.16148 | 34688 ft | 447 kts | 342° |
| 2026-04-26 06:43 | 39.10048 | 14.15018 | 34929 ft | 447 kts | 342° |
| 2026-04-26 06:44 | 39.13022 | 14.13871 | 35167 ft | 446 kts | 342° |
| 2026-04-26 06:44 | 39.15994 | 14.12720 | 35394 ft | 446 kts | 342° |
| 2026-04-26 06:44 | 39.18962 | 14.11569 | 35626 ft | 445 kts | 342° |
| 2026-04-26 06:44 | 39.21931 | 14.10417 | 35844 ft | 445 kts | 342° |
| 2026-04-26 06:45 | 39.24895 | 14.09267 | 36047 ft | 445 kts | 342° |
| 2026-04-26 06:45 | 39.27858 | 14.08120 | 36253 ft | 444 kts | 342° |
| 2026-04-26 06:45 | 39.30816 | 14.06974 | 36449 ft | 444 kts | 342° |
| 2026-04-26 06:45 | 39.33774 | 14.05824 | 36645 ft | 444 kts | 342° |
| 2026-04-26 06:46 | 39.36691 | 14.04691 | 36830 ft | 444 kts | 342° |
| 2026-04-26 06:46 | 39.39646 | 14.03542 | 37015 ft | 443 kts | 342° |
| 2026-04-26 06:46 | 39.42598 | 14.02391 | 37203 ft | 443 kts | 342° |
| 2026-04-26 06:46 | 39.45545 | 14.01241 | 37382 ft | 443 kts | 342° |
| 2026-04-26 06:47 | 39.48494 | 14.00091 | 37551 ft | 442 kts | 342° |
| 2026-04-26 06:47 | 39.51441 | 13.98940 | 37717 ft | 442 kts | 342° |
| 2026-04-26 06:47 | 39.54383 | 13.97789 | 37880 ft | 442 kts | 342° |
| 2026-04-26 06:47 | 39.57285 | 13.96652 | 38063 ft | 441 kts | 342° |
| 2026-04-26 06:48 | 39.60226 | 13.95498 | 38154 ft | 442 kts | 342° |
| 2026-04-26 06:48 | 39.66111 | 13.93190 | 38163 ft | 441 kts | 342° |
| 2026-04-26 06:49 | 39.71986 | 13.90877 | 38164 ft | 441 kts | 342° |
| 2026-04-26 06:49 | 39.77863 | 13.88572 | 38163 ft | 441 kts | 342° |
| 2026-04-26 06:50 | 39.83698 | 13.86274 | 38162 ft | 441 kts | 342° |
| 2026-04-26 06:50 | 39.89570 | 13.83955 | 38162 ft | 441 kts | 342° |
| 2026-04-26 06:51 | 39.95441 | 13.81629 | 38166 ft | 441 kts | 342° |
| 2026-04-26 06:51 | 40.04243 | 13.78142 | 38170 ft | 441 kts | 342° |
| 2026-04-26 06:52 | 40.10077 | 13.75815 | 38177 ft | 441 kts | 342° |
| 2026-04-26 06:52 | 40.15948 | 13.73471 | 38180 ft | 441 kts | 342° |
| 2026-04-26 06:53 | 40.21812 | 13.71135 | 38179 ft | 440 kts | 342° |
| 2026-04-26 06:53 | 40.27673 | 13.68797 | 38175 ft | 440 kts | 342° |
| 2026-04-26 06:54 | 40.33497 | 13.66471 | 38180 ft | 440 kts | 342° |
| 2026-04-26 06:54 | 40.39358 | 13.64119 | 38178 ft | 440 kts | 342° |
| 2026-04-26 06:55 | 40.45209 | 13.61763 | 38176 ft | 440 kts | 342° |
| 2026-04-26 06:55 | 40.51060 | 13.59400 | 38174 ft | 440 kts | 342° |
| 2026-04-26 06:56 | 40.56632 | 13.56153 | 38173 ft | 438 kts | 331° |
| 2026-04-26 06:56 | 40.61956 | 13.52349 | 38167 ft | 439 kts | 331° |
| 2026-04-26 06:57 | 40.67319 | 13.48523 | 38161 ft | 438 kts | 331° |
| 2026-04-26 06:57 | 40.72685 | 13.44703 | 38168 ft | 438 kts | 331° |
| 2026-04-26 06:58 | 40.78043 | 13.40882 | 38173 ft | 438 kts | 331° |
| 2026-04-26 06:58 | 40.83357 | 13.37069 | 38169 ft | 438 kts | 331° |
| 2026-04-26 06:59 | 40.88709 | 13.33217 | 38166 ft | 438 kts | 331° |
| 2026-04-26 06:59 | 40.94057 | 13.29366 | 38164 ft | 438 kts | 331° |
| 2026-04-26 07:00 | 40.99405 | 13.25510 | 38162 ft | 438 kts | 331° |
| 2026-04-26 07:00 | 41.04716 | 13.21674 | 38171 ft | 438 kts | 331° |
| 2026-04-26 07:01 | 41.10059 | 13.17816 | 38172 ft | 437 kts | 331° |
| 2026-04-26 07:01 | 41.15398 | 13.13955 | 38172 ft | 437 kts | 331° |
| 2026-04-26 07:02 | 41.20729 | 13.10079 | 38173 ft | 437 kts | 331° |
| 2026-04-26 07:02 | 41.26053 | 13.06195 | 38177 ft | 437 kts | 331° |
| 2026-04-26 07:03 | 41.31336 | 13.02340 | 38173 ft | 436 kts | 331° |
| 2026-04-26 07:03 | 41.36650 | 12.98462 | 38172 ft | 435 kts | 331° |
| 2026-04-26 07:04 | 41.41960 | 12.94586 | 38170 ft | 435 kts | 331° |
| 2026-04-26 07:04 | 41.47261 | 12.90701 | 38168 ft | 435 kts | 330° |
| 2026-04-26 07:05 | 41.52516 | 12.86827 | 38167 ft | 434 kts | 330° |
| 2026-04-26 07:05 | 41.57810 | 12.82933 | 38165 ft | 434 kts | 330° |
| 2026-04-26 07:06 | 41.63098 | 12.79046 | 38167 ft | 434 kts | 330° |
| 2026-04-26 07:06 | 41.68382 | 12.75144 | 38158 ft | 434 kts | 330° |
| 2026-04-26 07:07 | 41.73635 | 12.71256 | 38156 ft | 435 kts | 330° |
| 2026-04-26 07:07 | 41.78929 | 12.67335 | 38157 ft | 435 kts | 330° |
| 2026-04-26 07:08 | 41.84218 | 12.63405 | 38158 ft | 434 kts | 330° |
| 2026-04-26 07:08 | 41.89502 | 12.59473 | 38157 ft | 434 kts | 330° |
| 2026-04-26 07:09 | 41.94749 | 12.55563 | 38161 ft | 434 kts | 329° |
| 2026-04-26 07:09 | 42.00016 | 12.51619 | 38161 ft | 433 kts | 329° |
| 2026-04-26 07:11 | 42.13173 | 12.41757 | 38180 ft | 433 kts | 329° |
| 2026-04-26 07:11 | 42.18395 | 12.37833 | 38173 ft | 433 kts | 329° |
| 2026-04-26 07:12 | 42.23648 | 12.33872 | 38166 ft | 433 kts | 329° |
| 2026-04-26 07:12 | 42.28902 | 12.29900 | 38166 ft | 433 kts | 329° |
| 2026-04-26 07:13 | 42.34153 | 12.25927 | 38165 ft | 433 kts | 329° |
| 2026-04-26 07:13 | 42.39371 | 12.21971 | 38170 ft | 433 kts | 329° |
| 2026-04-26 07:14 | 42.44617 | 12.17991 | 38159 ft | 432 kts | 329° |
| 2026-04-26 07:14 | 42.49855 | 12.13995 | 38158 ft | 432 kts | 329° |
| 2026-04-26 07:15 | 42.55090 | 12.10004 | 38158 ft | 432 kts | 329° |
| 2026-04-26 07:15 | 42.60297 | 12.06042 | 38167 ft | 432 kts | 329° |
| 2026-04-26 07:16 | 42.65491 | 12.01948 | 38171 ft | 432 kts | 328° |
| 2026-04-26 07:16 | 42.70602 | 11.97649 | 38168 ft | 432 kts | 327° |
| 2026-04-26 07:17 | 42.75698 | 11.93311 | 38171 ft | 432 kts | 327° |
| 2026-04-26 07:17 | 42.80814 | 11.89019 | 38168 ft | 432 kts | 327° |
| 2026-04-26 07:18 | 42.85907 | 11.84774 | 38169 ft | 432 kts | 327° |
| 2026-04-26 07:18 | 42.91024 | 11.80487 | 38169 ft | 432 kts | 327° |
| 2026-04-26 07:19 | 42.96137 | 11.76186 | 38169 ft | 432 kts | 327° |
| 2026-04-26 07:19 | 43.01211 | 11.71905 | 38176 ft | 431 kts | 327° |
| 2026-04-26 07:20 | 43.06318 | 11.67604 | 38183 ft | 431 kts | 327° |
| 2026-04-26 07:20 | 43.11422 | 11.63292 | 38181 ft | 431 kts | 327° |
| 2026-04-26 07:21 | 43.16518 | 11.58968 | 38183 ft | 431 kts | 327° |
| 2026-04-26 07:21 | 43.21611 | 11.54633 | 38182 ft | 431 kts | 327° |
| 2026-04-26 07:22 | 43.26668 | 11.50334 | 38187 ft | 430 kts | 327° |
| 2026-04-26 07:22 | 43.31754 | 11.46000 | 38186 ft | 430 kts | 327° |
| 2026-04-26 07:23 | 43.36832 | 11.41660 | 38184 ft | 430 kts | 327° |
| 2026-04-26 07:23 | 43.41903 | 11.37320 | 38182 ft | 429 kts | 327° |
| 2026-04-26 07:24 | 43.46940 | 11.33006 | 38191 ft | 429 kts | 327° |
| 2026-04-26 07:24 | 43.52003 | 11.28656 | 38181 ft | 429 kts | 327° |
| 2026-04-26 07:25 | 43.57058 | 11.24296 | 38172 ft | 429 kts | 327° |
| 2026-04-26 07:25 | 43.62115 | 11.19927 | 38169 ft | 429 kts | 327° |
| 2026-04-26 07:26 | 43.67138 | 11.15586 | 38168 ft | 429 kts | 327° |
| 2026-04-26 07:26 | 43.72200 | 11.11209 | 38174 ft | 429 kts | 327° |
| 2026-04-26 07:27 | 43.77261 | 11.06821 | 38172 ft | 429 kts | 326° |
| 2026-04-26 07:27 | 43.82322 | 11.02417 | 38172 ft | 430 kts | 326° |
| 2026-04-26 07:28 | 43.87349 | 10.98034 | 38172 ft | 430 kts | 326° |
| 2026-04-26 07:28 | 43.92411 | 10.93612 | 38178 ft | 430 kts | 326° |
| 2026-04-26 07:29 | 43.97472 | 10.89180 | 38177 ft | 430 kts | 326° |
| 2026-04-26 07:29 | 44.02530 | 10.84738 | 38183 ft | 430 kts | 326° |
| 2026-04-26 07:30 | 44.07552 | 10.80326 | 38182 ft | 430 kts | 326° |
| 2026-04-26 07:30 | 44.12614 | 10.75881 | 38196 ft | 430 kts | 326° |
| 2026-04-26 07:31 | 44.17666 | 10.71423 | 38191 ft | 430 kts | 326° |
| 2026-04-26 07:31 | 44.22714 | 10.66951 | 38182 ft | 430 kts | 326° |
| 2026-04-26 07:32 | 44.27734 | 10.62503 | 38167 ft | 430 kts | 326° |
| 2026-04-26 07:32 | 44.32784 | 10.58022 | 38166 ft | 430 kts | 326° |
| 2026-04-26 07:33 | 44.37842 | 10.53525 | 38152 ft | 431 kts | 326° |
| 2026-04-26 07:33 | 44.42903 | 10.49011 | 38152 ft | 432 kts | 326° |
| 2026-04-26 07:34 | 44.47937 | 10.44519 | 38148 ft | 432 kts | 326° |
| 2026-04-26 07:34 | 44.53007 | 10.39983 | 38146 ft | 432 kts | 326° |
| 2026-04-26 07:35 | 44.58066 | 10.35437 | 38143 ft | 432 kts | 325° |
| 2026-04-26 07:35 | 44.63124 | 10.30886 | 38125 ft | 432 kts | 325° |
| 2026-04-26 07:36 | 44.68180 | 10.26322 | 38123 ft | 432 kts | 325° |
| 2026-04-26 07:36 | 44.73204 | 10.21795 | 38118 ft | 432 kts | 325° |
| 2026-04-26 07:37 | 44.78268 | 10.17230 | 38125 ft | 432 kts | 325° |
| 2026-04-26 07:37 | 44.83329 | 10.12642 | 38121 ft | 433 kts | 325° |
| 2026-04-26 07:38 | 44.88358 | 10.08072 | 38119 ft | 433 kts | 325° |
| 2026-04-26 07:38 | 44.93419 | 10.03455 | 38119 ft | 433 kts | 325° |
| 2026-04-26 07:39 | 44.98482 | 9.98831 | 38106 ft | 433 kts | 325° |
| 2026-04-26 07:39 | 45.03547 | 9.94209 | 38127 ft | 434 kts | 324° |
| 2026-04-26 07:40 | 45.08615 | 9.89564 | 38118 ft | 434 kts | 324° |
| 2026-04-26 07:40 | 45.13649 | 9.84943 | 38124 ft | 434 kts | 324° |
| 2026-04-26 07:41 | 45.18719 | 9.80287 | 38136 ft | 434 kts | 324° |
| 2026-04-26 07:41 | 45.23787 | 9.75615 | 38129 ft | 434 kts | 324° |
| 2026-04-26 07:42 | 45.28848 | 9.70934 | 38134 ft | 434 kts | 324° |
| 2026-04-26 07:42 | 45.33872 | 9.66277 | 38142 ft | 434 kts | 324° |
| 2026-04-26 07:43 | 45.38934 | 9.61579 | 38161 ft | 435 kts | 324° |
| 2026-04-26 07:43 | 45.43999 | 9.56866 | 38172 ft | 435 kts | 324° |
| 2026-04-26 07:44 | 45.49065 | 9.52147 | 38171 ft | 435 kts | 324° |
| 2026-04-26 07:44 | 45.54092 | 9.47450 | 38172 ft | 435 kts | 324° |
| 2026-04-26 07:45 | 45.59153 | 9.42708 | 38180 ft | 435 kts | 324° |
| 2026-04-26 07:45 | 45.64217 | 9.37959 | 38175 ft | 436 kts | 324° |
| 2026-04-26 07:46 | 45.69280 | 9.33198 | 38119 ft | 436 kts | 324° |
| 2026-04-26 07:46 | 45.74309 | 9.28458 | 38119 ft | 436 kts | 324° |
| 2026-04-26 07:47 | 45.79366 | 9.23680 | 38118 ft | 435 kts | 324° |
| 2026-04-26 07:47 | 45.84419 | 9.18892 | 38122 ft | 435 kts | 324° |
| 2026-04-26 07:48 | 45.89470 | 9.14098 | 38123 ft | 435 kts | 324° |
| 2026-04-26 07:48 | 45.94510 | 9.09305 | 38126 ft | 434 kts | 324° |
| 2026-04-26 07:49 | 45.99512 | 9.04546 | 38128 ft | 434 kts | 324° |
| 2026-04-26 07:49 | 46.04548 | 8.99745 | 38132 ft | 434 kts | 323° |
| 2026-04-26 07:50 | 46.12095 | 8.92517 | 38126 ft | 434 kts | 323° |
| 2026-04-26 07:50 | 46.17483 | 8.88567 | 38122 ft | 439 kts | 340° |
| 2026-04-26 07:51 | 46.23494 | 8.87086 | 38133 ft | 444 kts | 351° |
| 2026-04-26 07:51 | 46.29632 | 8.86179 | 38126 ft | 444 kts | 351° |
| 2026-04-26 07:52 | 46.32706 | 8.85720 | 37862 ft | 444 kts | 351° |
| 2026-04-26 07:52 | 46.35777 | 8.85256 | 37578 ft | 443 kts | 351° |
| 2026-04-26 07:52 | 46.38843 | 8.84791 | 37322 ft | 444 kts | 351° |
| 2026-04-26 07:52 | 46.41916 | 8.84325 | 37074 ft | 443 kts | 351° |
| 2026-04-26 07:53 | 46.44934 | 8.83869 | 36403 ft | 443 kts | 351° |
| 2026-04-26 07:53 | 46.48004 | 8.83405 | 35630 ft | 444 kts | 351° |
| 2026-04-26 07:53 | 46.51089 | 8.82942 | 34785 ft | 447 kts | 351° |
| 2026-04-26 07:53 | 46.54187 | 8.82470 | 33886 ft | 449 kts | 351° |
| 2026-04-26 07:54 | 46.57302 | 8.81992 | 32977 ft | 450 kts | 352° |
| 2026-04-26 07:54 | 46.60392 | 8.81520 | 32456 ft | 443 kts | 352° |
| 2026-04-26 07:54 | 46.63446 | 8.81060 | 31859 ft | 439 kts | 352° |
| 2026-04-26 07:54 | 46.66468 | 8.80607 | 31259 ft | 435 kts | 352° |
| 2026-04-26 07:55 | 46.69428 | 8.80159 | 30670 ft | 432 kts | 352° |
| 2026-04-26 07:55 | 46.72403 | 8.79705 | 30060 ft | 429 kts | 352° |
| 2026-04-26 07:55 | 46.75361 | 8.79254 | 29456 ft | 424 kts | 352° |
| 2026-04-26 07:55 | 46.78277 | 8.78781 | 28773 ft | 421 kts | 348° |
| 2026-04-26 07:56 | 46.81053 | 8.77520 | 28082 ft | 416 kts | 332° |
| 2026-04-26 07:56 | 46.83491 | 8.75314 | 27479 ft | 411 kts | 323° |
| 2026-04-26 07:56 | 46.85817 | 8.72917 | 26901 ft | 408 kts | 323° |
| 2026-04-26 07:56 | 46.88114 | 8.70518 | 26313 ft | 405 kts | 323° |
| 2026-04-26 07:57 | 46.90361 | 8.68152 | 25757 ft | 402 kts | 323° |
| 2026-04-26 07:57 | 46.92620 | 8.65767 | 25197 ft | 399 kts | 323° |
| 2026-04-26 07:57 | 46.94864 | 8.63397 | 24646 ft | 397 kts | 323° |
| 2026-04-26 07:57 | 46.97098 | 8.61039 | 24111 ft | 395 kts | 323° |
| 2026-04-26 07:58 | 46.99324 | 8.58694 | 23541 ft | 393 kts | 323° |
| 2026-04-26 07:58 | 47.01536 | 8.56362 | 22917 ft | 391 kts | 323° |
| 2026-04-26 07:58 | 47.03743 | 8.54033 | 22302 ft | 390 kts | 323° |
| 2026-04-26 07:58 | 47.05940 | 8.51710 | 21699 ft | 389 kts | 323° |
| 2026-04-26 07:59 | 47.08108 | 8.49418 | 21136 ft | 388 kts | 323° |
| 2026-04-26 07:59 | 47.10294 | 8.47104 | 20563 ft | 387 kts | 323° |
| 2026-04-26 07:59 | 47.12472 | 8.44797 | 20005 ft | 386 kts | 323° |
| 2026-04-26 07:59 | 47.14646 | 8.42490 | 19436 ft | 384 kts | 324° |
| 2026-04-26 08:00 | 47.16808 | 8.40193 | 18896 ft | 383 kts | 324° |
| 2026-04-26 08:00 | 47.18963 | 8.37901 | 18341 ft | 382 kts | 324° |
| 2026-04-26 08:00 | 47.21110 | 8.35615 | 17727 ft | 380 kts | 324° |
| 2026-04-26 08:00 | 47.23247 | 8.33337 | 17126 ft | 379 kts | 324° |
| 2026-04-26 08:01 | 47.25348 | 8.31098 | 16546 ft | 377 kts | 324° |
| 2026-04-26 08:01 | 47.27470 | 8.28839 | 15969 ft | 376 kts | 324° |
| 2026-04-26 08:01 | 47.29579 | 8.26591 | 15400 ft | 374 kts | 323° |
| 2026-04-26 08:01 | 47.31654 | 8.24378 | 14802 ft | 358 kts | 323° |
| 2026-04-26 08:02 | 47.33624 | 8.22275 | 14255 ft | 342 kts | 323° |
| 2026-04-26 08:02 | 47.35515 | 8.20260 | 13722 ft | 328 kts | 323° |
| 2026-04-26 08:02 | 47.37345 | 8.18306 | 12985 ft | 325 kts | 323° |
| 2026-04-26 08:02 | 47.39161 | 8.16349 | 12593 ft | 320 kts | 324° |
| 2026-04-26 08:03 | 47.40927 | 8.14437 | 11920 ft | 312 kts | 324° |
| 2026-04-26 08:03 | 47.42603 | 8.12624 | 11711 ft | 291 kts | 324° |
| 2026-04-26 08:03 | 47.44218 | 8.10883 | 11175 ft | 285 kts | 324° |
| 2026-04-26 08:03 | 47.45808 | 8.09174 | 10602 ft | 281 kts | 326° |
| 2026-04-26 08:04 | 47.47557 | 8.07908 | 10226 ft | 281 kts | 346° |
| 2026-04-26 08:04 | 47.49525 | 8.07796 | 9582 ft | 289 kts | 13° |
| 2026-04-26 08:04 | 47.51315 | 8.08964 | 9377 ft | 277 kts | 34° |
| 2026-04-26 08:04 | 47.52618 | 8.11000 | 8739 ft | 274 kts | 59° |
| 2026-04-26 08:05 | 47.53432 | 8.13530 | 8186 ft | 267 kts | 65° |
| 2026-04-26 08:05 | 47.54282 | 8.15834 | 8025 ft | 247 kts | 47° |
| 2026-04-26 08:05 | 47.55633 | 8.17291 | 7816 ft | 239 kts | 27° |
| 2026-04-26 08:05 | 47.57116 | 8.18320 | 7486 ft | 238 kts | 24° |
| 2026-04-26 08:06 | 47.58618 | 8.19337 | 7145 ft | 237 kts | 31° |
| 2026-04-26 08:06 | 47.59808 | 8.20973 | 6870 ft | 233 kts | 58° |
| 2026-04-26 08:06 | 47.60356 | 8.23154 | 6740 ft | 223 kts | 84° |
| 2026-04-26 08:06 | 47.60504 | 8.25397 | 6591 ft | 216 kts | 78° |
| 2026-04-26 08:07 | 47.60860 | 8.27534 | 6348 ft | 212 kts | 74° |
| 2026-04-26 08:07 | 47.61266 | 8.29628 | 6089 ft | 211 kts | 73° |
| 2026-04-26 08:07 | 47.61642 | 8.31720 | 5803 ft | 210 kts | 82° |
| 2026-04-26 08:07 | 47.61591 | 8.33859 | 5568 ft | 208 kts | 103° |
| 2026-04-26 08:08 | 47.61039 | 8.35808 | 5248 ft | 212 kts | 122° |
| 2026-04-26 08:08 | 47.60016 | 8.37432 | 4684 ft | 217 kts | 135° |
| 2026-04-26 08:08 | 47.58928 | 8.38916 | 4331 ft | 207 kts | 135° |
| 2026-04-26 08:09 | 47.55313 | 8.43872 | 3373 ft | 157 kts | 133° |
| 2026-04-26 08:09 | 47.54469 | 8.44911 | 3130 ft | 171 kts | 147° |
| 2026-04-26 08:10 | 47.53285 | 8.45183 | 3846 ft | 185 kts | 182° |
| 2026-04-26 08:10 | 47.51851 | 8.44736 | 3985 ft | 239 kts | 198° |
| 2026-04-26 08:10 | 47.50397 | 8.43551 | 3983 ft | 233 kts | 219° |
| 2026-04-26 08:10 | 47.49424 | 8.41666 | 4219 ft | 232 kts | 243° |
| 2026-04-26 08:11 | 47.49103 | 8.39423 | 4456 ft | 221 kts | 275° |
| 2026-04-26 08:11 | 47.49323 | 8.37226 | 4716 ft | 213 kts | 282° |
| 2026-04-26 08:11 | 47.49631 | 8.35093 | 4924 ft | 212 kts | 283° |
| 2026-04-26 08:11 | 47.49950 | 8.32956 | 4990 ft | 214 kts | 283° |
| 2026-04-26 08:12 | 47.50269 | 8.30797 | 4985 ft | 214 kts | 283° |
| 2026-04-26 08:12 | 47.50598 | 8.28658 | 4993 ft | 213 kts | 283° |
| 2026-04-26 08:12 | 47.50927 | 8.26525 | 4995 ft | 213 kts | 283° |
| 2026-04-26 08:12 | 47.51437 | 8.24523 | 4989 ft | 210 kts | 307° |
| 2026-04-26 08:13 | 47.52495 | 8.23098 | 4995 ft | 206 kts | 337° |
| 2026-04-26 08:13 | 47.53845 | 8.22630 | 5020 ft | 192 kts | 6° |
| 2026-04-26 08:13 | 47.55058 | 8.23081 | 5010 ft | 172 kts | 30° |
| 2026-04-26 08:13 | 47.55939 | 8.24111 | 4981 ft | 153 kts | 53° |
| 2026-04-26 08:14 | 47.56486 | 8.25457 | 5004 ft | 157 kts | 65° |
| 2026-04-26 08:14 | 47.57009 | 8.26956 | 5017 ft | 180 kts | 62° |
| 2026-04-26 08:14 | 47.57963 | 8.28389 | 4993 ft | 211 kts | 33° |
| 2026-04-26 08:14 | 47.59409 | 8.28957 | 5006 ft | 223 kts | 3° |
| 2026-04-26 08:15 | 47.60968 | 8.28828 | 5002 ft | 226 kts | 357° |
| 2026-04-26 08:15 | 47.62511 | 8.28712 | 4969 ft | 223 kts | 11° |
| 2026-04-26 08:15 | 47.63867 | 8.29650 | 5000 ft | 216 kts | 46° |
| 2026-04-26 08:15 | 47.64623 | 8.31528 | 5002 ft | 214 kts | 78° |
| 2026-04-26 08:16 | 47.64418 | 8.33643 | 5005 ft | 205 kts | 121° |
| 2026-04-26 08:16 | 47.63364 | 8.34782 | 5011 ft | 183 kts | 164° |
| 2026-04-26 08:16 | 47.62192 | 8.35114 | 4949 ft | 158 kts | 152° |
| 2026-04-26 08:16 | 47.61331 | 8.35935 | 4867 ft | 143 kts | 139° |
| 2026-04-26 08:17 | 47.60558 | 8.36828 | 4694 ft | 140 kts | 136° |
| 2026-04-26 08:17 | 47.59831 | 8.37748 | 4516 ft | 140 kts | 135° |
| 2026-04-26 08:17 | 47.59106 | 8.38705 | 4337 ft | 140 kts | 134° |
| 2026-04-26 08:17 | 47.58389 | 8.39672 | 4156 ft | 139 kts | 133° |
| 2026-04-26 08:18 | 47.57680 | 8.40638 | 3976 ft | 138 kts | 133° |
| 2026-04-26 08:18 | 47.56978 | 8.41596 | 3786 ft | 137 kts | 133° |
| 2026-04-26 08:18 | 47.56279 | 8.42554 | 3615 ft | 137 kts | 133° |
| 2026-04-26 08:18 | 47.55586 | 8.43504 | 3429 ft | 135 kts | 132° |
| 2026-04-26 08:19 | 47.54897 | 8.44444 | 3257 ft | 135 kts | 132° |
| 2026-04-26 08:19 | 47.54209 | 8.45390 | 3067 ft | 135 kts | 132° |
| 2026-04-26 08:19 | 47.53530 | 8.46323 | 2881 ft | 136 kts | 132° |
| 2026-04-26 08:19 | 47.52835 | 8.47273 | 2686 ft | 136 kts | 132° |
| 2026-04-26 08:20 | 47.52136 | 8.48232 | 2474 ft | 137 kts | 133° |
| 2026-04-26 08:20 | 47.51439 | 8.49185 | 2277 ft | 137 kts | 134° |
| 2026-04-26 08:20 | 47.50733 | 8.50162 | 2117 ft | 141 kts | 133° |
| 2026-04-26 08:20 | 47.50007 | 8.51154 | 1933 ft | 143 kts | 134° |
| 2026-04-26 08:21 | 47.49275 | 8.52150 | 1744 ft | 142 kts | 135° |
| 2026-04-26 08:21 | 47.48551 | 8.53136 | 1550 ft | 141 kts | 135° |
| 2026-04-26 08:21 | 47.47849 | 8.54095 | 1408 ft | 132 kts | 134° |
| 2026-04-26 08:21 | 47.47263 | 8.54899 | 1384 ft | 102 kts | 137° |
| 2026-04-26 08:22 | 47.46804 | 8.55524 | 1398 ft | 68 kts | 137° |
| 2026-04-26 08:22 | 47.46574 | 8.55831 | 1400 ft | 32 kts | 142° |
| 2026-04-26 08:22 | 47.46402 | 8.55947 | 1399 ft | 21 kts | 166° |
| 2026-04-26 08:22 | 47.46288 | 8.55985 | 1402 ft | 14 kts | 167° |
| 2026-04-26 08:23 | 47.46209 | 8.56005 | 1408 ft | 10 kts | 176° |
| 2026-04-26 08:23 | 47.46113 | 8.55993 | 1407 ft | 20 kts | 186° |
| 2026-04-26 08:23 | 47.45971 | 8.55967 | 1406 ft | 21 kts | 191° |
| 2026-04-26 08:23 | 47.45833 | 8.55899 | 1410 ft | 19 kts | 199° |
| 2026-04-26 08:24 | 47.45707 | 8.55866 | 1409 ft | 19 kts | 185° |
| 2026-04-26 08:24 | 47.45562 | 8.55843 | 1408 ft | 20 kts | 186° |
| 2026-04-26 08:24 | 47.45507 | 8.55738 | 1413 ft | 13 kts | 278° |
| 2026-04-26 08:24 | 47.45519 | 8.55598 | 1407 ft | 15 kts | 276° |
| 2026-04-26 08:25 | 47.45509 | 8.55451 | 1410 ft | 13 kts | 214° |
| 2026-04-26 08:25 | 47.45426 | 8.55475 | 1408 ft | 12 kts | 155° |
| 2026-04-26 08:25 | 47.45363 | 8.55517 | 1406 ft | 8 kts | 155° |
| 2026-04-26 08:25 | 47.45315 | 8.55552 | 1413 ft | 7 kts | 151° |
| 2026-04-26 08:26 | 47.45282 | 8.55594 | 1407 ft | 6 kts | 122° |
| 2026-04-26 08:26 | 47.45268 | 8.55684 | 1410 ft | 12 kts | 95° |
| 2026-04-26 08:26 | 47.45261 | 8.55790 | 1407 ft | 8 kts | 96° |
| 2026-04-26 08:26 | 47.45256 | 8.55855 | 1410 ft | 5 kts | 96° |
| 2026-04-26 08:27 | 47.45255 | 8.55913 | 1409 ft | 7 kts | 73° |
| 2026-04-26 08:27 | 47.45307 | 8.55940 | 1414 ft | 6 kts | 5° |
| 2026-04-26 08:27 | 47.45331 | 8.55943 | 1412 ft | 2 kts | 6° |
| 2026-04-26 08:27 | 47.45337 | 8.55944 | 1410 ft | 0 kts | 6° |